createdAt,value
2019-04-28T05:11:11.383Z,2.67
2019-04-28T05:21:11.697Z,2.70
2019-04-28T05:31:19.949Z,2.22
2019-04-28T05:41:11.057Z,2.18
2019-04-28T05:51:11.015Z,1.68
2019-04-28T06:01:11.103Z,1.51
2019-04-28T06:11:12.039Z,1.43
2019-04-28T06:21:11.843Z,1.52
2019-04-28T06:31:11.180Z,2.79
2019-04-28T06:41:11.813Z,3.17
2019-04-28T06:51:12.137Z,3.06
2019-04-28T07:01:12.074Z,3.28
2019-04-28T07:11:11.626Z,2.34
2019-04-28T07:21:11.151Z,2.41
2019-04-28T07:31:11.142Z,2.07
2019-04-28T07:41:11.987Z,3.20
2019-04-28T07:51:11.845Z,2.81
2019-04-28T08:01:10.929Z,2.38
2019-04-28T08:11:11.426Z,2.81
2019-04-28T08:21:11.394Z,3.09
2019-04-28T08:31:11.511Z,5.04
2019-04-28T08:41:12.235Z,2.16
2019-04-28T08:51:11.360Z,3.49
2019-04-28T09:01:23.530Z,2.90
2019-04-28T09:11:11.536Z,1.28
2019-04-28T09:21:11.487Z,0.00
2019-04-28T09:31:12.094Z,0.00
2019-04-28T09:41:11.704Z,0.00
2019-04-28T09:51:11.718Z,0.00
2019-04-28T10:01:11.797Z,0.00
2019-04-28T10:11:12.265Z,2.68
2019-04-28T10:21:12.091Z,3.61
2019-04-28T10:31:13.443Z,2.16
2019-04-28T10:41:12.015Z,1.63
2019-04-28T10:51:12.093Z,1.80
2019-04-28T11:01:12.314Z,4.44
2019-04-28T11:11:12.604Z,6.10
2019-04-28T11:21:12.043Z,3.39
2019-04-28T11:31:11.985Z,3.72
2019-04-28T11:41:11.679Z,4.08
2019-04-28T11:51:11.749Z,2.92
2019-04-28T12:01:32.789Z,2.74
2019-04-28T12:11:12.391Z,2.23
2019-04-28T12:21:11.943Z,1.91
2019-04-28T12:31:11.921Z,1.89
2019-04-28T12:41:12.077Z,2.53
2019-04-28T12:51:12.173Z,2.44
2019-04-28T13:01:11.485Z,1.89
2019-04-28T13:11:12.307Z,2.68
2019-04-28T13:21:11.953Z,2.47
2019-04-28T13:31:12.003Z,1.38
2019-04-28T13:41:11.989Z,1.33
2019-04-28T13:51:11.061Z,1.75
2019-04-28T14:01:11.822Z,2.04
2019-04-28T14:11:21.624Z,1.90
